<?xml version="1.0" encoding="UTF-8" standalone="no" ?>
<gpx xmlns="http://www.topografix.com/GPX/1/1" xmlns:xsi="http://www.w3.org/2001/XMLSchema-instance" xsi:schemaLocation="http://www.topografix.com/GPX/1/1 http://www.topografix.com/GPX/1/1/gpx.xsd" version="1.1" creator="VisuGPX - https://www.visugpx.com">
  <metadata>
    <name>Parcours permis de conduire</name>
    <desc><![CDATA[Parcours permis de conduire]]></desc>
  </metadata>
  <trk>
    <name><![CDATA[PERMIS-12 15:48:39]]></name>
    <trkseg>
      <trkpt lat="50.6563" lon="5.64751">
        <ele>96.27</ele>
        <time>2012-12-03T13:49:47Z</time>
      </trkpt>
      <trkpt lat="50.6563" lon="5.64751">
        <ele>90.5</ele>
        <time>2012-12-03T13:49:48Z</time>
      </trkpt>
      <trkpt lat="50.6563" lon="5.64751">
        <ele>94.83</ele>
        <time>2012-12-03T13:49:49Z</time>
      </trkpt>
      <trkpt lat="50.65629" lon="5.64751">
        <ele>94.35</ele>
        <time>2012-12-03T13:49:50Z</time>
      </trkpt>
      <trkpt lat="50.65629" lon="5.64751">
        <ele>90.98</ele>
        <time>2012-12-03T13:49:52Z</time>
      </trkpt>
      <trkpt lat="50.6563" lon="5.64751">
        <ele>88.58</ele>
        <time>2012-12-03T13:49:55Z</time>
      </trkpt>
      <trkpt lat="50.6563" lon="5.64752">
        <ele>81.37</ele>
        <time>2012-12-03T13:49:57Z</time>
      </trkpt>
      <trkpt lat="50.6563" lon="5.64753">
        <ele>83.77</ele>
        <time>2012-12-03T13:49:58Z</time>
      </trkpt>
      <trkpt lat="50.6563" lon="5.64754">
        <ele>80.89</ele>
        <time>2012-12-03T13:50:02Z</time>
      </trkpt>
      <trkpt lat="50.6563" lon="5.64754">
        <ele>77.04</ele>
        <time>2012-12-03T13:50:06Z</time>
      </trkpt>
      <trkpt lat="50.6563" lon="5.64753">
        <ele>73.68</ele>
        <time>2012-12-03T13:50:10Z</time>
      </trkpt>
      <trkpt lat="50.6563" lon="5.64753">
        <ele>73.2</ele>
        <time>2012-12-03T13:50:11Z</time>
      </trkpt>
      <trkpt lat="50.6563" lon="5.64753">
        <ele>71.76</ele>
        <time>2012-12-03T13:50:13Z</time>
      </trkpt>
      <trkpt lat="50.6563" lon="5.6475">
        <ele>68.87</ele>
        <time>2012-12-03T13:50:18Z</time>
      </trkpt>
      <trkpt lat="50.6563" lon="5.6475">
        <ele>68.87</ele>
        <time>2012-12-03T13:50:19Z</time>
      </trkpt>
      <trkpt lat="50.6563" lon="5.6475">
        <ele>66.95</ele>
        <time>2012-12-03T13:50:23Z</time>
      </trkpt>
      <trkpt lat="50.65631" lon="5.64752">
        <ele>64.07</ele>
        <time>2012-12-03T13:50:31Z</time>
      </trkpt>
      <trkpt lat="50.65632" lon="5.64751">
        <ele>63.1</ele>
        <time>2012-12-03T13:50:34Z</time>
      </trkpt>
      <trkpt lat="50.65634" lon="5.6475">
        <ele>62.62</ele>
        <time>2012-12-03T13:50:37Z</time>
      </trkpt>
      <trkpt lat="50.65639" lon="5.64748">
        <ele>60.7</ele>
        <time>2012-12-03T13:50:41Z</time>
      </trkpt>
      <trkpt lat="50.65642" lon="5.64749">
        <ele>60.7</ele>
        <time>2012-12-03T13:50:45Z</time>
      </trkpt>
      <trkpt lat="50.65643" lon="5.64749">
        <ele>60.22</ele>
        <time>2012-12-03T13:50:46Z</time>
      </trkpt>
      <trkpt lat="50.65644" lon="5.64749">
        <ele>59.26</ele>
        <time>2012-12-03T13:50:48Z</time>
      </trkpt>
      <trkpt lat="50.65646" lon="5.64749">
        <ele>59.26</ele>
        <time>2012-12-03T13:50:49Z</time>
      </trkpt>
      <trkpt lat="50.65647" lon="5.6475">
        <ele>59.26</ele>
        <time>2012-12-03T13:50:50Z</time>
      </trkpt>
      <trkpt lat="50.65648" lon="5.64751">
        <ele>59.26</ele>
        <time>2012-12-03T13:50:51Z</time>
      </trkpt>
      <trkpt lat="50.65648" lon="5.64752">
        <ele>58.78</ele>
        <time>2012-12-03T13:50:52Z</time>
      </trkpt>
      <trkpt lat="50.65649" lon="5.64754">
        <ele>58.3</ele>
        <time>2012-12-03T13:50:53Z</time>
      </trkpt>
      <trkpt lat="50.65653" lon="5.64762">
        <ele>56.86</ele>
        <time>2012-12-03T13:50:59Z</time>
      </trkpt>
      <trkpt lat="50.65654" lon="5.64762">
        <ele>55.41</ele>
        <time>2012-12-03T13:51:05Z</time>
      </trkpt>
      <trkpt lat="50.65654" lon="5.64762">
        <ele>52.05</ele>
        <time>2012-12-03T13:51:22Z</time>
      </trkpt>
      <trkpt lat="50.65654" lon="5.64763">
        <ele>51.09</ele>
        <time>2012-12-03T13:51:46Z</time>
      </trkpt>
      <trkpt lat="50.65646" lon="5.6478">
        <ele>51.57</ele>
        <time>2012-12-03T13:51:57Z</time>
      </trkpt>
      <trkpt lat="50.65634" lon="5.648">
        <ele>51.57</ele>
        <time>2012-12-03T13:52:06Z</time>
      </trkpt>
      <trkpt lat="50.65622" lon="5.64812">
        <ele>51.57</ele>
        <time>2012-12-03T13:52:15Z</time>
      </trkpt>
      <trkpt lat="50.65621" lon="5.64807">
        <ele>51.57</ele>
        <time>2012-12-03T13:52:23Z</time>
      </trkpt>
      <trkpt lat="50.65627" lon="5.64795">
        <ele>51.09</ele>
        <time>2012-12-03T13:54:44Z</time>
      </trkpt>
      <trkpt lat="50.65645" lon="5.64768">
        <ele>50.13</ele>
        <time>2012-12-03T13:55:02Z</time>
      </trkpt>
      <trkpt lat="50.65645" lon="5.64768">
        <ele>50.61</ele>
        <time>2012-12-03T13:55:03Z</time>
      </trkpt>
      <trkpt lat="50.65644" lon="5.64749">
        <ele>50.13</ele>
        <time>2012-12-03T13:55:09Z</time>
      </trkpt>
      <trkpt lat="50.6564" lon="5.64749">
        <ele>50.13</ele>
        <time>2012-12-03T13:55:13Z</time>
      </trkpt>
      <trkpt lat="50.65638" lon="5.6475">
        <ele>50.61</ele>
        <time>2012-12-03T13:55:15Z</time>
      </trkpt>
      <trkpt lat="50.65635" lon="5.64753">
        <ele>50.13</ele>
        <time>2012-12-03T13:55:18Z</time>
      </trkpt>
      <trkpt lat="50.65634" lon="5.64755">
        <ele>50.61</ele>
        <time>2012-12-03T13:55:23Z</time>
      </trkpt>
      <trkpt lat="50.65633" lon="5.64754">
        <ele>50.61</ele>
        <time>2012-12-03T13:55:32Z</time>
      </trkpt>
      <trkpt lat="50.65636" lon="5.64753">
        <ele>50.61</ele>
        <time>2012-12-03T13:55:35Z</time>
      </trkpt>
      <trkpt lat="50.65647" lon="5.64756">
        <ele>51.09</ele>
        <time>2012-12-03T13:55:43Z</time>
      </trkpt>
      <trkpt lat="50.65657" lon="5.6476">
        <ele>51.09</ele>
        <time>2012-12-03T13:55:50Z</time>
      </trkpt>
      <trkpt lat="50.65659" lon="5.64764">
        <ele>50.61</ele>
        <time>2012-12-03T13:55:56Z</time>
      </trkpt>
      <trkpt lat="50.65656" lon="5.64765">
        <ele>51.57</ele>
        <time>2012-12-03T13:56:04Z</time>
      </trkpt>
      <trkpt lat="50.65656" lon="5.64765">
        <ele>51.09</ele>
        <time>2012-12-03T13:56:16Z</time>
      </trkpt>
      <trkpt lat="50.65656" lon="5.64765">
        <ele>50.61</ele>
        <time>2012-12-03T13:56:36Z</time>
      </trkpt>
      <trkpt lat="50.65655" lon="5.64765">
        <ele>51.09</ele>
        <time>2012-12-03T13:57:20Z</time>
      </trkpt>
      <trkpt lat="50.65647" lon="5.6479">
        <ele>51.57</ele>
        <time>2012-12-03T13:57:34Z</time>
      </trkpt>
      <trkpt lat="50.65633" lon="5.64813">
        <ele>51.09</ele>
        <time>2012-12-03T13:57:41Z</time>
      </trkpt>
      <trkpt lat="50.65639" lon="5.64793">
        <ele>50.61</ele>
        <time>2012-12-03T13:57:49Z</time>
      </trkpt>
      <trkpt lat="50.6565" lon="5.64756">
        <ele>50.61</ele>
        <time>2012-12-03T13:57:52Z</time>
      </trkpt>
      <trkpt lat="50.65641" lon="5.64748">
        <ele>50.13</ele>
        <time>2012-12-03T13:58:03Z</time>
      </trkpt>
      <trkpt lat="50.65634" lon="5.6475">
        <ele>50.13</ele>
        <time>2012-12-03T13:58:09Z</time>
      </trkpt>
      <trkpt lat="50.65631" lon="5.64752">
        <ele>50.61</ele>
        <time>2012-12-03T13:58:15Z</time>
      </trkpt>
      <trkpt lat="50.6563" lon="5.64752">
        <ele>50.61</ele>
        <time>2012-12-03T13:58:33Z</time>
      </trkpt>
      <trkpt lat="50.65628" lon="5.64752">
        <ele>50.13</ele>
        <time>2012-12-03T13:58:44Z</time>
      </trkpt>
      <trkpt lat="50.65628" lon="5.64752">
        <ele>46.76</ele>
        <time>2012-12-03T13:58:55Z</time>
      </trkpt>
      <trkpt lat="50.65628" lon="5.64752">
        <ele>49.65</ele>
        <time>2012-12-03T13:58:57Z</time>
      </trkpt>
      <trkpt lat="50.65628" lon="5.64752">
        <ele>50.13</ele>
        <time>2012-12-03T13:59:24Z</time>
      </trkpt>
      <trkpt lat="50.65624" lon="5.64756">
        <ele>49.16</ele>
        <time>2012-12-03T13:59:31Z</time>
      </trkpt>
      <trkpt lat="50.65628" lon="5.64771">
        <ele>48.68</ele>
        <time>2012-12-03T13:59:36Z</time>
      </trkpt>
      <trkpt lat="50.65634" lon="5.64782">
        <ele>48.68</ele>
        <time>2012-12-03T13:59:39Z</time>
      </trkpt>
      <trkpt lat="50.65649" lon="5.64796">
        <ele>49.65</ele>
        <time>2012-12-03T13:59:46Z</time>
      </trkpt>
      <trkpt lat="50.65651" lon="5.64802">
        <ele>50.13</ele>
        <time>2012-12-03T13:59:51Z</time>
      </trkpt>
      <trkpt lat="50.65651" lon="5.64802">
        <ele>49.65</ele>
        <time>2012-12-03T14:00:06Z</time>
      </trkpt>
      <trkpt lat="50.65653" lon="5.64794">
        <ele>50.13</ele>
        <time>2012-12-03T14:00:12Z</time>
      </trkpt>
      <trkpt lat="50.65653" lon="5.64794">
        <ele>50.13</ele>
        <time>2012-12-03T14:00:20Z</time>
      </trkpt>
      <trkpt lat="50.65653" lon="5.64785">
        <ele>51.09</ele>
        <time>2012-12-03T14:00:30Z</time>
      </trkpt>
      <trkpt lat="50.65655" lon="5.64781">
        <ele>51.57</ele>
        <time>2012-12-03T14:00:40Z</time>
      </trkpt>
      <trkpt lat="50.65655" lon="5.64781">
        <ele>50.13</ele>
        <time>2012-12-03T14:01:23Z</time>
      </trkpt>
      <trkpt lat="50.65653" lon="5.64782">
        <ele>53.01</ele>
        <time>2012-12-03T14:06:16Z</time>
      </trkpt>
      <trkpt lat="50.65652" lon="5.64789">
        <ele>52.53</ele>
        <time>2012-12-03T14:06:25Z</time>
      </trkpt>
      <trkpt lat="50.65652" lon="5.64792">
        <ele>52.53</ele>
        <time>2012-12-03T14:06:31Z</time>
      </trkpt>
      <trkpt lat="50.65652" lon="5.64794">
        <ele>52.53</ele>
        <time>2012-12-03T14:06:37Z</time>
      </trkpt>
      <trkpt lat="50.65651" lon="5.64796">
        <ele>53.49</ele>
        <time>2012-12-03T14:07:49Z</time>
      </trkpt>
      <trkpt lat="50.65649" lon="5.6479">
        <ele>54.45</ele>
        <time>2012-12-03T14:12:06Z</time>
      </trkpt>
      <trkpt lat="50.65663" lon="5.64798">
        <ele>53.49</ele>
        <time>2012-12-03T14:12:14Z</time>
      </trkpt>
      <trkpt lat="50.65668" lon="5.64793">
        <ele>53.49</ele>
        <time>2012-12-03T14:12:16Z</time>
      </trkpt>
      <trkpt lat="50.65679" lon="5.64763">
        <ele>53.97</ele>
        <time>2012-12-03T14:12:22Z</time>
      </trkpt>
      <trkpt lat="50.65685" lon="5.64745">
        <ele>53.01</ele>
        <time>2012-12-03T14:12:28Z</time>
      </trkpt>
      <trkpt lat="50.65686" lon="5.64744">
        <ele>53.49</ele>
        <time>2012-12-03T14:12:29Z</time>
      </trkpt>
      <trkpt lat="50.65683" lon="5.64735">
        <ele>53.01</ele>
        <time>2012-12-03T14:12:32Z</time>
      </trkpt>
      <trkpt lat="50.65679" lon="5.64732">
        <ele>53.49</ele>
        <time>2012-12-03T14:12:33Z</time>
      </trkpt>
      <trkpt lat="50.65673" lon="5.64729">
        <ele>53.97</ele>
        <time>2012-12-03T14:12:34Z</time>
      </trkpt>
      <trkpt lat="50.65667" lon="5.64726">
        <ele>53.97</ele>
        <time>2012-12-03T14:12:35Z</time>
      </trkpt>
      <trkpt lat="50.65633" lon="5.64709">
        <ele>55.41</ele>
        <time>2012-12-03T14:12:39Z</time>
      </trkpt>
      <trkpt lat="50.65572" lon="5.64672">
        <ele>57.82</ele>
        <time>2012-12-03T14:12:45Z</time>
      </trkpt>
      <trkpt lat="50.65521" lon="5.64634">
        <ele>60.22</ele>
        <time>2012-12-03T14:12:50Z</time>
      </trkpt>
      <trkpt lat="50.65481" lon="5.646">
        <ele>61.66</ele>
        <time>2012-12-03T14:12:55Z</time>
      </trkpt>
      <trkpt lat="50.65474" lon="5.64598">
        <ele>61.18</ele>
        <time>2012-12-03T14:12:56Z</time>
      </trkpt>
      <trkpt lat="50.65468" lon="5.64598">
        <ele>60.7</ele>
        <time>2012-12-03T14:12:57Z</time>
      </trkpt>
      <trkpt lat="50.65462" lon="5.64599">
        <ele>61.18</ele>
        <time>2012-12-03T14:12:58Z</time>
      </trkpt>
      <trkpt lat="50.65457" lon="5.64601">
        <ele>60.7</ele>
        <time>2012-12-03T14:12:59Z</time>
      </trkpt>
      <trkpt lat="50.65453" lon="5.64603">
        <ele>60.7</ele>
        <time>2012-12-03T14:13:00Z</time>
      </trkpt>
      <trkpt lat="50.65445" lon="5.64605">
        <ele>61.18</ele>
        <time>2012-12-03T14:13:02Z</time>
      </trkpt>
      <trkpt lat="50.6544" lon="5.64604">
        <ele>60.7</ele>
        <time>2012-12-03T14:13:03Z</time>
      </trkpt>
      <trkpt lat="50.65435" lon="5.64599">
        <ele>60.7</ele>
        <time>2012-12-03T14:13:04Z</time>
      </trkpt>
      <trkpt lat="50.6543" lon="5.64593">
        <ele>60.22</ele>
        <time>2012-12-03T14:13:05Z</time>
      </trkpt>
      <trkpt lat="50.65423" lon="5.64585">
        <ele>60.7</ele>
        <time>2012-12-03T14:13:06Z</time>
      </trkpt>
      <trkpt lat="50.65416" lon="5.64574">
        <ele>61.18</ele>
        <time>2012-12-03T14:13:07Z</time>
      </trkpt>
      <trkpt lat="50.65358" lon="5.64486">
        <ele>60.7</ele>
        <time>2012-12-03T14:13:14Z</time>
      </trkpt>
      <trkpt lat="50.65308" lon="5.6441">
        <ele>59.74</ele>
        <time>2012-12-03T14:13:20Z</time>
      </trkpt>
      <trkpt lat="50.6525" lon="5.6432">
        <ele>59.26</ele>
        <time>2012-12-03T14:13:27Z</time>
      </trkpt>
      <trkpt lat="50.65198" lon="5.64234">
        <ele>59.26</ele>
        <time>2012-12-03T14:13:34Z</time>
      </trkpt>
      <trkpt lat="50.65139" lon="5.64127">
        <ele>60.7</ele>
        <time>2012-12-03T14:13:42Z</time>
      </trkpt>
      <trkpt lat="50.65114" lon="5.64075">
        <ele>60.22</ele>
        <time>2012-12-03T14:13:47Z</time>
      </trkpt>
      <trkpt lat="50.65084" lon="5.64004">
        <ele>59.74</ele>
        <time>2012-12-03T14:13:53Z</time>
      </trkpt>
      <trkpt lat="50.65051" lon="5.6391">
        <ele>56.37</ele>
        <time>2012-12-03T14:13:59Z</time>
      </trkpt>
      <trkpt lat="50.65027" lon="5.63838">
        <ele>54.45</ele>
        <time>2012-12-03T14:14:03Z</time>
      </trkpt>
      <trkpt lat="50.64996" lon="5.63755">
        <ele>53.49</ele>
        <time>2012-12-03T14:14:08Z</time>
      </trkpt>
      <trkpt lat="50.64978" lon="5.63711">
        <ele>52.05</ele>
        <time>2012-12-03T14:14:12Z</time>
      </trkpt>
      <trkpt lat="50.64966" lon="5.63682">
        <ele>52.05</ele>
        <time>2012-12-03T14:14:17Z</time>
      </trkpt>
      <trkpt lat="50.64962" lon="5.63676">
        <ele>51.57</ele>
        <time>2012-12-03T14:14:22Z</time>
      </trkpt>
      <trkpt lat="50.64958" lon="5.63669">
        <ele>51.57</ele>
        <time>2012-12-03T14:14:30Z</time>
      </trkpt>
      <trkpt lat="50.6495" lon="5.63657">
        <ele>52.05</ele>
        <time>2012-12-03T14:14:33Z</time>
      </trkpt>
      <trkpt lat="50.64946" lon="5.6365">
        <ele>52.05</ele>
        <time>2012-12-03T14:14:34Z</time>
      </trkpt>
      <trkpt lat="50.6494" lon="5.63635">
        <ele>52.05</ele>
        <time>2012-12-03T14:14:36Z</time>
      </trkpt>
      <trkpt lat="50.64938" lon="5.63628">
        <ele>51.57</ele>
        <time>2012-12-03T14:14:37Z</time>
      </trkpt>
      <trkpt lat="50.64928" lon="5.63597">
        <ele>52.05</ele>
        <time>2012-12-03T14:14:41Z</time>
      </trkpt>
      <trkpt lat="50.64925" lon="5.6359">
        <ele>52.05</ele>
        <time>2012-12-03T14:14:42Z</time>
      </trkpt>
      <trkpt lat="50.64907" lon="5.63557">
        <ele>52.05</ele>
        <time>2012-12-03T14:14:48Z</time>
      </trkpt>
      <trkpt lat="50.64889" lon="5.63513">
        <ele>52.05</ele>
        <time>2012-12-03T14:14:54Z</time>
      </trkpt>
      <trkpt lat="50.64877" lon="5.6349">
        <ele>52.05</ele>
        <time>2012-12-03T14:15:00Z</time>
      </trkpt>
      <trkpt lat="50.64877" lon="5.63488">
        <ele>52.05</ele>
        <time>2012-12-03T14:15:01Z</time>
      </trkpt>
      <trkpt lat="50.64876" lon="5.63484">
        <ele>51.57</ele>
        <time>2012-12-03T14:15:02Z</time>
      </trkpt>
      <trkpt lat="50.64874" lon="5.63481">
        <ele>51.57</ele>
        <time>2012-12-03T14:15:03Z</time>
      </trkpt>
      <trkpt lat="50.64868" lon="5.63471">
        <ele>51.57</ele>
        <time>2012-12-03T14:15:05Z</time>
      </trkpt>
      <trkpt lat="50.64859" lon="5.63452">
        <ele>53.01</ele>
        <time>2012-12-03T14:15:08Z</time>
      </trkpt>
      <trkpt lat="50.64855" lon="5.63444">
        <ele>52.53</ele>
        <time>2012-12-03T14:15:09Z</time>
      </trkpt>
      <trkpt lat="50.64822" lon="5.63372">
        <ele>52.53</ele>
        <time>2012-12-03T14:15:17Z</time>
      </trkpt>
      <trkpt lat="50.64798" lon="5.63311">
        <ele>53.01</ele>
        <time>2012-12-03T14:15:23Z</time>
      </trkpt>
      <trkpt lat="50.64766" lon="5.63215">
        <ele>53.01</ele>
        <time>2012-12-03T14:15:31Z</time>
      </trkpt>
      <trkpt lat="50.64754" lon="5.63176">
        <ele>52.53</ele>
        <time>2012-12-03T14:15:35Z</time>
      </trkpt>
      <trkpt lat="50.64731" lon="5.63117">
        <ele>54.45</ele>
        <time>2012-12-03T14:15:40Z</time>
      </trkpt>
      <trkpt lat="50.647" lon="5.63035">
        <ele>54.45</ele>
        <time>2012-12-03T14:15:46Z</time>
      </trkpt>
      <trkpt lat="50.64669" lon="5.62946">
        <ele>53.49</ele>
        <time>2012-12-03T14:15:52Z</time>
      </trkpt>
      <trkpt lat="50.64641" lon="5.62863">
        <ele>53.01</ele>
        <time>2012-12-03T14:15:58Z</time>
      </trkpt>
      <trkpt lat="50.6462" lon="5.62799">
        <ele>53.49</ele>
        <time>2012-12-03T14:16:04Z</time>
      </trkpt>
      <trkpt lat="50.64606" lon="5.62758">
        <ele>53.01</ele>
        <time>2012-12-03T14:16:10Z</time>
      </trkpt>
      <trkpt lat="50.64602" lon="5.62747">
        <ele>53.01</ele>
        <time>2012-12-03T14:16:16Z</time>
      </trkpt>
      <trkpt lat="50.646" lon="5.62744">
        <ele>52.53</ele>
        <time>2012-12-03T14:16:26Z</time>
      </trkpt>
      <trkpt lat="50.64593" lon="5.62724">
        <ele>52.53</ele>
        <time>2012-12-03T14:16:30Z</time>
      </trkpt>
      <trkpt lat="50.64592" lon="5.62715">
        <ele>53.01</ele>
        <time>2012-12-03T14:16:31Z</time>
      </trkpt>
      <trkpt lat="50.64592" lon="5.62705">
        <ele>53.01</ele>
        <time>2012-12-03T14:16:32Z</time>
      </trkpt>
      <trkpt lat="50.64593" lon="5.62693">
        <ele>53.49</ele>
        <time>2012-12-03T14:16:33Z</time>
      </trkpt>
      <trkpt lat="50.64598" lon="5.62684">
        <ele>53.97</ele>
        <time>2012-12-03T14:16:34Z</time>
      </trkpt>
      <trkpt lat="50.64605" lon="5.62677">
        <ele>54.45</ele>
        <time>2012-12-03T14:16:35Z</time>
      </trkpt>
      <trkpt lat="50.64613" lon="5.62671">
        <ele>54.45</ele>
        <time>2012-12-03T14:16:36Z</time>
      </trkpt>
      <trkpt lat="50.64662" lon="5.62637">
        <ele>57.82</ele>
        <time>2012-12-03T14:16:41Z</time>
      </trkpt>
      <trkpt lat="50.64714" lon="5.6261">
        <ele>61.18</ele>
        <time>2012-12-03T14:16:46Z</time>
      </trkpt>
      <trkpt lat="50.64722" lon="5.62607">
        <ele>61.66</ele>
        <time>2012-12-03T14:16:47Z</time>
      </trkpt>
      <trkpt lat="50.64761" lon="5.62586">
        <ele>61.18</ele>
        <time>2012-12-03T14:16:53Z</time>
      </trkpt>
      <trkpt lat="50.6481" lon="5.6256">
        <ele>58.3</ele>
        <time>2012-12-03T14:16:59Z</time>
      </trkpt>
      <trkpt lat="50.64817" lon="5.62556">
        <ele>57.82</ele>
        <time>2012-12-03T14:17:00Z</time>
      </trkpt>
      <trkpt lat="50.6483" lon="5.62553">
        <ele>57.34</ele>
        <time>2012-12-03T14:17:02Z</time>
      </trkpt>
      <trkpt lat="50.64842" lon="5.62552">
        <ele>56.86</ele>
        <time>2012-12-03T14:17:04Z</time>
      </trkpt>
      <trkpt lat="50.64849" lon="5.6255">
        <ele>56.86</ele>
        <time>2012-12-03T14:17:05Z</time>
      </trkpt>
      <trkpt lat="50.64855" lon="5.62546">
        <ele>56.37</ele>
        <time>2012-12-03T14:17:06Z</time>
      </trkpt>
      <trkpt lat="50.64861" lon="5.62541">
        <ele>56.37</ele>
        <time>2012-12-03T14:17:07Z</time>
      </trkpt>
      <trkpt lat="50.64867" lon="5.62535">
        <ele>56.37</ele>
        <time>2012-12-03T14:17:08Z</time>
      </trkpt>
      <trkpt lat="50.64912" lon="5.62469">
        <ele>54.45</ele>
        <time>2012-12-03T14:17:17Z</time>
      </trkpt>
      <trkpt lat="50.64921" lon="5.62459">
        <ele>53.97</ele>
        <time>2012-12-03T14:17:19Z</time>
      </trkpt>
      <trkpt lat="50.6494" lon="5.62442">
        <ele>53.97</ele>
        <time>2012-12-03T14:17:23Z</time>
      </trkpt>
      <trkpt lat="50.64944" lon="5.62436">
        <ele>53.97</ele>
        <time>2012-12-03T14:17:24Z</time>
      </trkpt>
      <trkpt lat="50.64947" lon="5.6243">
        <ele>54.45</ele>
        <time>2012-12-03T14:17:25Z</time>
      </trkpt>
      <trkpt lat="50.64949" lon="5.62422">
        <ele>54.45</ele>
        <time>2012-12-03T14:17:26Z</time>
      </trkpt>
      <trkpt lat="50.64948" lon="5.62413">
        <ele>54.45</ele>
        <time>2012-12-03T14:17:27Z</time>
      </trkpt>
      <trkpt lat="50.64945" lon="5.62405">
        <ele>54.45</ele>
        <time>2012-12-03T14:17:28Z</time>
      </trkpt>
      <trkpt lat="50.64941" lon="5.62399">
        <ele>53.97</ele>
        <time>2012-12-03T14:17:29Z</time>
      </trkpt>
      <trkpt lat="50.64936" lon="5.62393">
        <ele>54.45</ele>
        <time>2012-12-03T14:17:30Z</time>
      </trkpt>
      <trkpt lat="50.64932" lon="5.62387">
        <ele>54.45</ele>
        <time>2012-12-03T14:17:31Z</time>
      </trkpt>
      <trkpt lat="50.64922" lon="5.62374">
        <ele>53.49</ele>
        <time>2012-12-03T14:17:33Z</time>
      </trkpt>
      <trkpt lat="50.64919" lon="5.62367">
        <ele>53.49</ele>
        <time>2012-12-03T14:17:34Z</time>
      </trkpt>
      <trkpt lat="50.64916" lon="5.62359">
        <ele>53.49</ele>
        <time>2012-12-03T14:17:35Z</time>
      </trkpt>
      <trkpt lat="50.64915" lon="5.6235">
        <ele>53.97</ele>
        <time>2012-12-03T14:17:36Z</time>
      </trkpt>
      <trkpt lat="50.64915" lon="5.6234">
        <ele>53.97</ele>
        <time>2012-12-03T14:17:37Z</time>
      </trkpt>
      <trkpt lat="50.64915" lon="5.6233">
        <ele>53.97</ele>
        <time>2012-12-03T14:17:38Z</time>
      </trkpt>
      <trkpt lat="50.64919" lon="5.62262">
        <ele>54.45</ele>
        <time>2012-12-03T14:17:44Z</time>
      </trkpt>
      <trkpt lat="50.64924" lon="5.62192">
        <ele>54.93</ele>
        <time>2012-12-03T14:17:51Z</time>
      </trkpt>
      <trkpt lat="50.64924" lon="5.62159">
        <ele>53.97</ele>
        <time>2012-12-03T14:17:55Z</time>
      </trkpt>
      <trkpt lat="50.64925" lon="5.62134">
        <ele>53.97</ele>
        <time>2012-12-03T14:17:58Z</time>
      </trkpt>
      <trkpt lat="50.64927" lon="5.62125">
        <ele>53.97</ele>
        <time>2012-12-03T14:17:59Z</time>
      </trkpt>
      <trkpt lat="50.6493" lon="5.62103">
        <ele>53.97</ele>
        <time>2012-12-03T14:18:01Z</time>
      </trkpt>
      <trkpt lat="50.64932" lon="5.62079">
        <ele>54.93</ele>
        <time>2012-12-03T14:18:03Z</time>
      </trkpt>
      <trkpt lat="50.64929" lon="5.61999">
        <ele>54.93</ele>
        <time>2012-12-03T14:18:09Z</time>
      </trkpt>
      <trkpt lat="50.64916" lon="5.61851">
        <ele>54.93</ele>
        <time>2012-12-03T14:18:19Z</time>
      </trkpt>
      <trkpt lat="50.64906" lon="5.61752">
        <ele>54.93</ele>
        <time>2012-12-03T14:18:26Z</time>
      </trkpt>
      <trkpt lat="50.64895" lon="5.61674">
        <ele>55.41</ele>
        <time>2012-12-03T14:18:33Z</time>
      </trkpt>
      <trkpt lat="50.64876" lon="5.61608">
        <ele>55.89</ele>
        <time>2012-12-03T14:18:41Z</time>
      </trkpt>
      <trkpt lat="50.64849" lon="5.61553">
        <ele>56.37</ele>
        <time>2012-12-03T14:18:47Z</time>
      </trkpt>
      <trkpt lat="50.64839" lon="5.61532">
        <ele>56.37</ele>
        <time>2012-12-03T14:18:49Z</time>
      </trkpt>
      <trkpt lat="50.64834" lon="5.6152">
        <ele>55.89</ele>
        <time>2012-12-03T14:18:50Z</time>
      </trkpt>
      <trkpt lat="50.64814" lon="5.61435">
        <ele>56.37</ele>
        <time>2012-12-03T14:18:56Z</time>
      </trkpt>
      <trkpt lat="50.64809" lon="5.61332">
        <ele>56.37</ele>
        <time>2012-12-03T14:19:02Z</time>
      </trkpt>
      <trkpt lat="50.64799" lon="5.61227">
        <ele>56.37</ele>
        <time>2012-12-03T14:19:08Z</time>
      </trkpt>
      <trkpt lat="50.64776" lon="5.61115">
        <ele>56.37</ele>
        <time>2012-12-03T14:19:15Z</time>
      </trkpt>
      <trkpt lat="50.64744" lon="5.6096">
        <ele>55.89</ele>
        <time>2012-12-03T14:19:25Z</time>
      </trkpt>
      <trkpt lat="50.64733" lon="5.60906">
        <ele>55.89</ele>
        <time>2012-12-03T14:19:30Z</time>
      </trkpt>
      <trkpt lat="50.64732" lon="5.60894">
        <ele>55.89</ele>
        <time>2012-12-03T14:19:32Z</time>
      </trkpt>
      <trkpt lat="50.64733" lon="5.60888">
        <ele>55.41</ele>
        <time>2012-12-03T14:19:33Z</time>
      </trkpt>
      <trkpt lat="50.64735" lon="5.60882">
        <ele>55.89</ele>
        <time>2012-12-03T14:19:34Z</time>
      </trkpt>
      <trkpt lat="50.64739" lon="5.60877">
        <ele>56.37</ele>
        <time>2012-12-03T14:19:35Z</time>
      </trkpt>
      <trkpt lat="50.64745" lon="5.60873">
        <ele>55.89</ele>
        <time>2012-12-03T14:19:36Z</time>
      </trkpt>
      <trkpt lat="50.64751" lon="5.6087">
        <ele>56.37</ele>
        <time>2012-12-03T14:19:37Z</time>
      </trkpt>
      <trkpt lat="50.64802" lon="5.60844">
        <ele>56.37</ele>
        <time>2012-12-03T14:19:45Z</time>
      </trkpt>
      <trkpt lat="50.64832" lon="5.60825">
        <ele>56.37</ele>
        <time>2012-12-03T14:19:52Z</time>
      </trkpt>
      <trkpt lat="50.64843" lon="5.6082">
        <ele>56.37</ele>
        <time>2012-12-03T14:19:58Z</time>
      </trkpt>
      <trkpt lat="50.64837" lon="5.60825">
        <ele>56.37</ele>
        <time>2012-12-03T14:20:06Z</time>
      </trkpt>
      <trkpt lat="50.64836" lon="5.60826">
        <ele>56.37</ele>
        <time>2012-12-03T14:20:15Z</time>
      </trkpt>
      <trkpt lat="50.64836" lon="5.60825">
        <ele>56.86</ele>
        <time>2012-12-03T14:20:29Z</time>
      </trkpt>
      <trkpt lat="50.64837" lon="5.60824">
        <ele>56.37</ele>
        <time>2012-12-03T14:21:21Z</time>
      </trkpt>
      <trkpt lat="50.64837" lon="5.60823">
        <ele>56.86</ele>
        <time>2012-12-03T14:21:22Z</time>
      </trkpt>
      <trkpt lat="50.64846" lon="5.60814">
        <ele>57.34</ele>
        <time>2012-12-03T14:21:28Z</time>
      </trkpt>
      <trkpt lat="50.64852" lon="5.60808">
        <ele>57.34</ele>
        <time>2012-12-03T14:21:34Z</time>
      </trkpt>
      <trkpt lat="50.64852" lon="5.60807">
        <ele>57.34</ele>
        <time>2012-12-03T14:21:35Z</time>
      </trkpt>
      <trkpt lat="50.64851" lon="5.60805">
        <ele>56.86</ele>
        <time>2012-12-03T14:21:42Z</time>
      </trkpt>
      <trkpt lat="50.64851" lon="5.60805">
        <ele>57.34</ele>
        <time>2012-12-03T14:21:54Z</time>
      </trkpt>
      <trkpt lat="50.6485" lon="5.60804">
        <ele>57.34</ele>
        <time>2012-12-03T14:21:56Z</time>
      </trkpt>
      <trkpt lat="50.64848" lon="5.60803">
        <ele>56.86</ele>
        <time>2012-12-03T14:21:57Z</time>
      </trkpt>
      <trkpt lat="50.64844" lon="5.60804">
        <ele>57.34</ele>
        <time>2012-12-03T14:21:58Z</time>
      </trkpt>
      <trkpt lat="50.64824" lon="5.60816">
        <ele>57.82</ele>
        <time>2012-12-03T14:22:02Z</time>
      </trkpt>
      <trkpt lat="50.64782" lon="5.60837">
        <ele>58.3</ele>
        <time>2012-12-03T14:22:07Z</time>
      </trkpt>
      <trkpt lat="50.64748" lon="5.60857">
        <ele>57.82</ele>
        <time>2012-12-03T14:22:12Z</time>
      </trkpt>
      <trkpt lat="50.64734" lon="5.60864">
        <ele>57.82</ele>
        <time>2012-12-03T14:22:16Z</time>
      </trkpt>
      <trkpt lat="50.64718" lon="5.60867">
        <ele>57.82</ele>
        <time>2012-12-03T14:22:20Z</time>
      </trkpt>
      <trkpt lat="50.64711" lon="5.60867">
        <ele>58.3</ele>
        <time>2012-12-03T14:22:21Z</time>
      </trkpt>
      <trkpt lat="50.64666" lon="5.60857">
        <ele>58.3</ele>
        <time>2012-12-03T14:22:26Z</time>
      </trkpt>
      <trkpt lat="50.6461" lon="5.60842">
        <ele>57.34</ele>
        <time>2012-12-03T14:22:33Z</time>
      </trkpt>
      <trkpt lat="50.64595" lon="5.60833">
        <ele>57.34</ele>
        <time>2012-12-03T14:22:37Z</time>
      </trkpt>
      <trkpt lat="50.64594" lon="5.60827">
        <ele>56.86</ele>
        <time>2012-12-03T14:22:38Z</time>
      </trkpt>
      <trkpt lat="50.64593" lon="5.60819">
        <ele>56.86</ele>
        <time>2012-12-03T14:22:39Z</time>
      </trkpt>
      <trkpt lat="50.64595" lon="5.60808">
        <ele>56.86</ele>
        <time>2012-12-03T14:22:40Z</time>
      </trkpt>
      <trkpt lat="50.64605" lon="5.60767">
        <ele>57.34</ele>
        <time>2012-12-03T14:22:44Z</time>
      </trkpt>
      <trkpt lat="50.64609" lon="5.60749">
        <ele>57.34</ele>
        <time>2012-12-03T14:22:48Z</time>
      </trkpt>
      <trkpt lat="50.64614" lon="5.6072">
        <ele>57.34</ele>
        <time>2012-12-03T14:22:53Z</time>
      </trkpt>
      <trkpt lat="50.64623" lon="5.6067">
        <ele>58.3</ele>
        <time>2012-12-03T14:22:58Z</time>
      </trkpt>
      <trkpt lat="50.64628" lon="5.60636">
        <ele>57.82</ele>
        <time>2012-12-03T14:23:02Z</time>
      </trkpt>
      <trkpt lat="50.64633" lon="5.60592">
        <ele>57.82</ele>
        <time>2012-12-03T14:23:09Z</time>
      </trkpt>
      <trkpt lat="50.64636" lon="5.60527">
        <ele>58.78</ele>
        <time>2012-12-03T14:23:15Z</time>
      </trkpt>
      <trkpt lat="50.64636" lon="5.60472">
        <ele>58.78</ele>
        <time>2012-12-03T14:23:20Z</time>
      </trkpt>
      <trkpt lat="50.64636" lon="5.60446">
        <ele>59.26</ele>
        <time>2012-12-03T14:23:24Z</time>
      </trkpt>
      <trkpt lat="50.64639" lon="5.60439">
        <ele>58.78</ele>
        <time>2012-12-03T14:23:25Z</time>
      </trkpt>
      <trkpt lat="50.64643" lon="5.60434">
        <ele>59.26</ele>
        <time>2012-12-03T14:23:26Z</time>
      </trkpt>
      <trkpt lat="50.64648" lon="5.60429">
        <ele>59.26</ele>
        <time>2012-12-03T14:23:27Z</time>
      </trkpt>
      <trkpt lat="50.64654" lon="5.60424">
        <ele>59.74</ele>
        <time>2012-12-03T14:23:28Z</time>
      </trkpt>
      <trkpt lat="50.6466" lon="5.60419">
        <ele>59.74</ele>
        <time>2012-12-03T14:23:29Z</time>
      </trkpt>
      <trkpt lat="50.64699" lon="5.60392">
        <ele>60.7</ele>
        <time>2012-12-03T14:23:35Z</time>
      </trkpt>
      <trkpt lat="50.64731" lon="5.60365">
        <ele>61.66</ele>
        <time>2012-12-03T14:23:40Z</time>
      </trkpt>
      <trkpt lat="50.64772" lon="5.60316">
        <ele>63.1</ele>
        <time>2012-12-03T14:23:47Z</time>
      </trkpt>
      <trkpt lat="50.64785" lon="5.60297">
        <ele>63.58</ele>
        <time>2012-12-03T14:23:49Z</time>
      </trkpt>
      <trkpt lat="50.64801" lon="5.6028">
        <ele>63.58</ele>
        <time>2012-12-03T14:23:51Z</time>
      </trkpt>
      <trkpt lat="50.6487" lon="5.60228">
        <ele>65.03</ele>
        <time>2012-12-03T14:23:58Z</time>
      </trkpt>
      <trkpt lat="50.64914" lon="5.60208">
        <ele>65.99</ele>
        <time>2012-12-03T14:24:03Z</time>
      </trkpt>
      <trkpt lat="50.64941" lon="5.60197">
        <ele>65.99</ele>
        <time>2012-12-03T14:24:08Z</time>
      </trkpt>
      <trkpt lat="50.64948" lon="5.60194">
        <ele>65.51</ele>
        <time>2012-12-03T14:24:13Z</time>
      </trkpt>
      <trkpt lat="50.6495" lon="5.60191">
        <ele>65.51</ele>
        <time>2012-12-03T14:24:33Z</time>
      </trkpt>
      <trkpt lat="50.64964" lon="5.60183">
        <ele>65.03</ele>
        <time>2012-12-03T14:24:38Z</time>
      </trkpt>
      <trkpt lat="50.64977" lon="5.60177">
        <ele>64.55</ele>
        <time>2012-12-03T14:24:44Z</time>
      </trkpt>
      <trkpt lat="50.64996" lon="5.6017">
        <ele>64.07</ele>
        <time>2012-12-03T14:24:50Z</time>
      </trkpt>
      <trkpt lat="50.65003" lon="5.60176">
        <ele>64.07</ele>
        <time>2012-12-03T14:24:52Z</time>
      </trkpt>
      <trkpt lat="50.65005" lon="5.60184">
        <ele>64.07</ele>
        <time>2012-12-03T14:24:53Z</time>
      </trkpt>
      <trkpt lat="50.65007" lon="5.60192">
        <ele>63.1</ele>
        <time>2012-12-03T14:24:54Z</time>
      </trkpt>
      <trkpt lat="50.65017" lon="5.60249">
        <ele>63.1</ele>
        <time>2012-12-03T14:24:59Z</time>
      </trkpt>
      <trkpt lat="50.65047" lon="5.60361">
        <ele>60.7</ele>
        <time>2012-12-03T14:25:08Z</time>
      </trkpt>
      <trkpt lat="50.65078" lon="5.60477">
        <ele>61.18</ele>
        <time>2012-12-03T14:25:16Z</time>
      </trkpt>
      <trkpt lat="50.65107" lon="5.60586">
        <ele>60.7</ele>
        <time>2012-12-03T14:25:23Z</time>
      </trkpt>
      <trkpt lat="50.65134" lon="5.60684">
        <ele>60.22</ele>
        <time>2012-12-03T14:25:31Z</time>
      </trkpt>
      <trkpt lat="50.65161" lon="5.6078">
        <ele>60.22</ele>
        <time>2012-12-03T14:25:40Z</time>
      </trkpt>
      <trkpt lat="50.6519" lon="5.60886">
        <ele>59.74</ele>
        <time>2012-12-03T14:25:51Z</time>
      </trkpt>
      <trkpt lat="50.65211" lon="5.60967">
        <ele>60.22</ele>
        <time>2012-12-03T14:25:58Z</time>
      </trkpt>
      <trkpt lat="50.65245" lon="5.61104">
        <ele>59.74</ele>
        <time>2012-12-03T14:26:08Z</time>
      </trkpt>
      <trkpt lat="50.65277" lon="5.61238">
        <ele>59.74</ele>
        <time>2012-12-03T14:26:17Z</time>
      </trkpt>
      <trkpt lat="50.65295" lon="5.61323">
        <ele>58.78</ele>
        <time>2012-12-03T14:26:24Z</time>
      </trkpt>
      <trkpt lat="50.653" lon="5.61343">
        <ele>59.26</ele>
        <time>2012-12-03T14:26:28Z</time>
      </trkpt>
      <trkpt lat="50.65302" lon="5.61349">
        <ele>59.26</ele>
        <time>2012-12-03T14:26:30Z</time>
      </trkpt>
      <trkpt lat="50.65305" lon="5.61351">
        <ele>59.26</ele>
        <time>2012-12-03T14:26:31Z</time>
      </trkpt>
      <trkpt lat="50.65309" lon="5.61352">
        <ele>59.26</ele>
        <time>2012-12-03T14:26:32Z</time>
      </trkpt>
      <trkpt lat="50.65314" lon="5.61351">
        <ele>59.26</ele>
        <time>2012-12-03T14:26:33Z</time>
      </trkpt>
      <trkpt lat="50.65319" lon="5.61348">
        <ele>59.26</ele>
        <time>2012-12-03T14:26:34Z</time>
      </trkpt>
      <trkpt lat="50.65325" lon="5.61345">
        <ele>59.26</ele>
        <time>2012-12-03T14:26:35Z</time>
      </trkpt>
      <trkpt lat="50.65361" lon="5.61323">
        <ele>59.26</ele>
        <time>2012-12-03T14:26:40Z</time>
      </trkpt>
      <trkpt lat="50.6542" lon="5.61289">
        <ele>58.78</ele>
        <time>2012-12-03T14:26:48Z</time>
      </trkpt>
      <trkpt lat="50.65433" lon="5.61284">
        <ele>58.3</ele>
        <time>2012-12-03T14:26:50Z</time>
      </trkpt>
      <trkpt lat="50.6544" lon="5.61284">
        <ele>57.82</ele>
        <time>2012-12-03T14:26:51Z</time>
      </trkpt>
      <trkpt lat="50.65445" lon="5.61285">
        <ele>57.34</ele>
        <time>2012-12-03T14:26:52Z</time>
      </trkpt>
      <trkpt lat="50.65449" lon="5.61285">
        <ele>56.86</ele>
        <time>2012-12-03T14:26:53Z</time>
      </trkpt>
      <trkpt lat="50.65453" lon="5.61287">
        <ele>56.86</ele>
        <time>2012-12-03T14:26:54Z</time>
      </trkpt>
      <trkpt lat="50.65463" lon="5.61291">
        <ele>56.37</ele>
        <time>2012-12-03T14:26:56Z</time>
      </trkpt>
      <trkpt lat="50.65469" lon="5.61296">
        <ele>56.37</ele>
        <time>2012-12-03T14:26:57Z</time>
      </trkpt>
      <trkpt lat="50.65476" lon="5.61304">
        <ele>55.89</ele>
        <time>2012-12-03T14:26:58Z</time>
      </trkpt>
      <trkpt lat="50.65481" lon="5.61314">
        <ele>56.37</ele>
        <time>2012-12-03T14:26:59Z</time>
      </trkpt>
      <trkpt lat="50.65487" lon="5.61327">
        <ele>55.89</ele>
        <time>2012-12-03T14:27:00Z</time>
      </trkpt>
      <trkpt lat="50.65492" lon="5.6134">
        <ele>55.41</ele>
        <time>2012-12-03T14:27:01Z</time>
      </trkpt>
      <trkpt lat="50.65496" lon="5.61354">
        <ele>54.93</ele>
        <time>2012-12-03T14:27:02Z</time>
      </trkpt>
      <trkpt lat="50.65498" lon="5.61369">
        <ele>54.93</ele>
        <time>2012-12-03T14:27:03Z</time>
      </trkpt>
      <trkpt lat="50.655" lon="5.61385">
        <ele>54.45</ele>
        <time>2012-12-03T14:27:04Z</time>
      </trkpt>
      <trkpt lat="50.655" lon="5.61402">
        <ele>54.93</ele>
        <time>2012-12-03T14:27:05Z</time>
      </trkpt>
      <trkpt lat="50.65499" lon="5.61419">
        <ele>54.45</ele>
        <time>2012-12-03T14:27:06Z</time>
      </trkpt>
      <trkpt lat="50.65491" lon="5.61565">
        <ele>53.97</ele>
        <time>2012-12-03T14:27:14Z</time>
      </trkpt>
      <trkpt lat="50.65486" lon="5.61672">
        <ele>54.93</ele>
        <time>2012-12-03T14:27:20Z</time>
      </trkpt>
      <trkpt lat="50.65499" lon="5.61773">
        <ele>54.93</ele>
        <time>2012-12-03T14:27:26Z</time>
      </trkpt>
      <trkpt lat="50.65521" lon="5.61901">
        <ele>54.45</ele>
        <time>2012-12-03T14:27:34Z</time>
      </trkpt>
      <trkpt lat="50.65548" lon="5.62056">
        <ele>55.41</ele>
        <time>2012-12-03T14:27:44Z</time>
      </trkpt>
      <trkpt lat="50.65567" lon="5.62185">
        <ele>55.89</ele>
        <time>2012-12-03T14:27:51Z</time>
      </trkpt>
      <trkpt lat="50.6559" lon="5.62325">
        <ele>56.86</ele>
        <time>2012-12-03T14:27:58Z</time>
      </trkpt>
      <trkpt lat="50.65621" lon="5.62416">
        <ele>57.34</ele>
        <time>2012-12-03T14:28:03Z</time>
      </trkpt>
      <trkpt lat="50.65671" lon="5.62515">
        <ele>56.86</ele>
        <time>2012-12-03T14:28:10Z</time>
      </trkpt>
      <trkpt lat="50.6571" lon="5.62589">
        <ele>56.37</ele>
        <time>2012-12-03T14:28:16Z</time>
      </trkpt>
      <trkpt lat="50.65731" lon="5.62634">
        <ele>55.89</ele>
        <time>2012-12-03T14:28:21Z</time>
      </trkpt>
      <trkpt lat="50.65736" lon="5.62639">
        <ele>55.89</ele>
        <time>2012-12-03T14:28:22Z</time>
      </trkpt>
      <trkpt lat="50.65766" lon="5.62663">
        <ele>55.89</ele>
        <time>2012-12-03T14:28:26Z</time>
      </trkpt>
      <trkpt lat="50.65806" lon="5.627">
        <ele>56.37</ele>
        <time>2012-12-03T14:28:30Z</time>
      </trkpt>
      <trkpt lat="50.65856" lon="5.62748">
        <ele>56.86</ele>
        <time>2012-12-03T14:28:34Z</time>
      </trkpt>
      <trkpt lat="50.65977" lon="5.62869">
        <ele>56.86</ele>
        <time>2012-12-03T14:28:44Z</time>
      </trkpt>
      <trkpt lat="50.66012" lon="5.62908">
        <ele>56.37</ele>
        <time>2012-12-03T14:28:48Z</time>
      </trkpt>
      <trkpt lat="50.66034" lon="5.62934">
        <ele>55.89</ele>
        <time>2012-12-03T14:28:52Z</time>
      </trkpt>
      <trkpt lat="50.66037" lon="5.62939">
        <ele>56.37</ele>
        <time>2012-12-03T14:28:53Z</time>
      </trkpt>
      <trkpt lat="50.6604" lon="5.62944">
        <ele>55.89</ele>
        <time>2012-12-03T14:28:54Z</time>
      </trkpt>
      <trkpt lat="50.66046" lon="5.62956">
        <ele>55.89</ele>
        <time>2012-12-03T14:28:56Z</time>
      </trkpt>
      <trkpt lat="50.66051" lon="5.62962">
        <ele>56.37</ele>
        <time>2012-12-03T14:28:57Z</time>
      </trkpt>
      <trkpt lat="50.66057" lon="5.62966">
        <ele>56.37</ele>
        <time>2012-12-03T14:28:58Z</time>
      </trkpt>
      <trkpt lat="50.66063" lon="5.6297">
        <ele>56.37</ele>
        <time>2012-12-03T14:28:59Z</time>
      </trkpt>
      <trkpt lat="50.6607" lon="5.62976">
        <ele>55.89</ele>
        <time>2012-12-03T14:29:00Z</time>
      </trkpt>
      <trkpt lat="50.66077" lon="5.62983">
        <ele>56.37</ele>
        <time>2012-12-03T14:29:01Z</time>
      </trkpt>
      <trkpt lat="50.66084" lon="5.62991">
        <ele>56.86</ele>
        <time>2012-12-03T14:29:02Z</time>
      </trkpt>
      <trkpt lat="50.66091" lon="5.62999">
        <ele>56.86</ele>
        <time>2012-12-03T14:29:03Z</time>
      </trkpt>
      <trkpt lat="50.6614" lon="5.63061">
        <ele>56.86</ele>
        <time>2012-12-03T14:29:09Z</time>
      </trkpt>
      <trkpt lat="50.66204" lon="5.63153">
        <ele>57.34</ele>
        <time>2012-12-03T14:29:17Z</time>
      </trkpt>
      <trkpt lat="50.6626" lon="5.63237">
        <ele>57.34</ele>
        <time>2012-12-03T14:29:25Z</time>
      </trkpt>
      <trkpt lat="50.66283" lon="5.63273">
        <ele>57.34</ele>
        <time>2012-12-03T14:29:30Z</time>
      </trkpt>
      <trkpt lat="50.66287" lon="5.6328">
        <ele>57.34</ele>
        <time>2012-12-03T14:29:31Z</time>
      </trkpt>
      <trkpt lat="50.66289" lon="5.63287">
        <ele>56.86</ele>
        <time>2012-12-03T14:29:32Z</time>
      </trkpt>
      <trkpt lat="50.66294" lon="5.63301">
        <ele>57.34</ele>
        <time>2012-12-03T14:29:34Z</time>
      </trkpt>
      <trkpt lat="50.66298" lon="5.63307">
        <ele>57.34</ele>
        <time>2012-12-03T14:29:35Z</time>
      </trkpt>
      <trkpt lat="50.66303" lon="5.63312">
        <ele>57.34</ele>
        <time>2012-12-03T14:29:36Z</time>
      </trkpt>
      <trkpt lat="50.66317" lon="5.63324">
        <ele>57.34</ele>
        <time>2012-12-03T14:29:38Z</time>
      </trkpt>
      <trkpt lat="50.66325" lon="5.63333">
        <ele>57.34</ele>
        <time>2012-12-03T14:29:39Z</time>
      </trkpt>
      <trkpt lat="50.66379" lon="5.63413">
        <ele>57.82</ele>
        <time>2012-12-03T14:29:46Z</time>
      </trkpt>
      <trkpt lat="50.66444" lon="5.63525">
        <ele>57.82</ele>
        <time>2012-12-03T14:29:55Z</time>
      </trkpt>
      <trkpt lat="50.66496" lon="5.63639">
        <ele>57.34</ele>
        <time>2012-12-03T14:30:04Z</time>
      </trkpt>
      <trkpt lat="50.66535" lon="5.63732">
        <ele>59.26</ele>
        <time>2012-12-03T14:30:10Z</time>
      </trkpt>
      <trkpt lat="50.66562" lon="5.6379">
        <ele>62.14</ele>
        <time>2012-12-03T14:30:14Z</time>
      </trkpt>
      <trkpt lat="50.66587" lon="5.63827">
        <ele>64.07</ele>
        <time>2012-12-03T14:30:17Z</time>
      </trkpt>
      <trkpt lat="50.66637" lon="5.63871">
        <ele>65.99</ele>
        <time>2012-12-03T14:30:22Z</time>
      </trkpt>
      <trkpt lat="50.66668" lon="5.63899">
        <ele>66.47</ele>
        <time>2012-12-03T14:30:27Z</time>
      </trkpt>
      <trkpt lat="50.66674" lon="5.63904">
        <ele>66.47</ele>
        <time>2012-12-03T14:30:28Z</time>
      </trkpt>
      <trkpt lat="50.66706" lon="5.63929">
        <ele>66.47</ele>
        <time>2012-12-03T14:30:32Z</time>
      </trkpt>
      <trkpt lat="50.66781" lon="5.63985">
        <ele>64.55</ele>
        <time>2012-12-03T14:30:40Z</time>
      </trkpt>
      <trkpt lat="50.66879" lon="5.64052">
        <ele>61.66</ele>
        <time>2012-12-03T14:30:49Z</time>
      </trkpt>
      <trkpt lat="50.66952" lon="5.64089">
        <ele>62.62</ele>
        <time>2012-12-03T14:30:56Z</time>
      </trkpt>
      <trkpt lat="50.66961" lon="5.6409">
        <ele>62.62</ele>
        <time>2012-12-03T14:30:57Z</time>
      </trkpt>
      <trkpt lat="50.6697" lon="5.6409">
        <ele>62.62</ele>
        <time>2012-12-03T14:30:58Z</time>
      </trkpt>
      <trkpt lat="50.66978" lon="5.64089">
        <ele>63.1</ele>
        <time>2012-12-03T14:30:59Z</time>
      </trkpt>
      <trkpt lat="50.66986" lon="5.6409">
        <ele>63.1</ele>
        <time>2012-12-03T14:31:00Z</time>
      </trkpt>
      <trkpt lat="50.66993" lon="5.64093">
        <ele>63.1</ele>
        <time>2012-12-03T14:31:01Z</time>
      </trkpt>
      <trkpt lat="50.67001" lon="5.64097">
        <ele>62.62</ele>
        <time>2012-12-03T14:31:02Z</time>
      </trkpt>
      <trkpt lat="50.67053" lon="5.64109">
        <ele>62.62</ele>
        <time>2012-12-03T14:31:08Z</time>
      </trkpt>
      <trkpt lat="50.67136" lon="5.64116">
        <ele>63.1</ele>
        <time>2012-12-03T14:31:17Z</time>
      </trkpt>
      <trkpt lat="50.67223" lon="5.64126">
        <ele>64.55</ele>
        <time>2012-12-03T14:31:26Z</time>
      </trkpt>
      <trkpt lat="50.67258" lon="5.64124">
        <ele>65.99</ele>
        <time>2012-12-03T14:31:31Z</time>
      </trkpt>
      <trkpt lat="50.67275" lon="5.64122">
        <ele>66.47</ele>
        <time>2012-12-03T14:31:34Z</time>
      </trkpt>
      <trkpt lat="50.67281" lon="5.64124">
        <ele>66.47</ele>
        <time>2012-12-03T14:31:35Z</time>
      </trkpt>
      <trkpt lat="50.67287" lon="5.64126">
        <ele>66.95</ele>
        <time>2012-12-03T14:31:36Z</time>
      </trkpt>
      <trkpt lat="50.67321" lon="5.64141">
        <ele>64.55</ele>
        <time>2012-12-03T14:31:40Z</time>
      </trkpt>
      <trkpt lat="50.67345" lon="5.64149">
        <ele>63.58</ele>
        <time>2012-12-03T14:31:42Z</time>
      </trkpt>
      <trkpt lat="50.67418" lon="5.64172">
        <ele>63.1</ele>
        <time>2012-12-03T14:31:48Z</time>
      </trkpt>
      <trkpt lat="50.67461" lon="5.64178">
        <ele>65.51</ele>
        <time>2012-12-03T14:31:52Z</time>
      </trkpt>
      <trkpt lat="50.67504" lon="5.64173">
        <ele>67.91</ele>
        <time>2012-12-03T14:31:57Z</time>
      </trkpt>
      <trkpt lat="50.6751" lon="5.64174">
        <ele>68.39</ele>
        <time>2012-12-03T14:31:58Z</time>
      </trkpt>
      <trkpt lat="50.67514" lon="5.64177">
        <ele>68.39</ele>
        <time>2012-12-03T14:31:59Z</time>
      </trkpt>
      <trkpt lat="50.67518" lon="5.64182">
        <ele>68.87</ele>
        <time>2012-12-03T14:32:00Z</time>
      </trkpt>
      <trkpt lat="50.67521" lon="5.64188">
        <ele>68.87</ele>
        <time>2012-12-03T14:32:01Z</time>
      </trkpt>
      <trkpt lat="50.67522" lon="5.64194">
        <ele>69.35</ele>
        <time>2012-12-03T14:32:02Z</time>
      </trkpt>
      <trkpt lat="50.67522" lon="5.64201">
        <ele>69.83</ele>
        <time>2012-12-03T14:32:03Z</time>
      </trkpt>
      <trkpt lat="50.67522" lon="5.64207">
        <ele>70.31</ele>
        <time>2012-12-03T14:32:04Z</time>
      </trkpt>
      <trkpt lat="50.6752" lon="5.64213">
        <ele>70.31</ele>
        <time>2012-12-03T14:32:05Z</time>
      </trkpt>
      <trkpt lat="50.67516" lon="5.6422">
        <ele>70.31</ele>
        <time>2012-12-03T14:32:06Z</time>
      </trkpt>
      <trkpt lat="50.6751" lon="5.64228">
        <ele>70.79</ele>
        <time>2012-12-03T14:32:07Z</time>
      </trkpt>
      <trkpt lat="50.67503" lon="5.64236">
        <ele>71.76</ele>
        <time>2012-12-03T14:32:08Z</time>
      </trkpt>
      <trkpt lat="50.67495" lon="5.64244">
        <ele>71.76</ele>
        <time>2012-12-03T14:32:09Z</time>
      </trkpt>
      <trkpt lat="50.67442" lon="5.64302">
        <ele>72.72</ele>
        <time>2012-12-03T14:32:15Z</time>
      </trkpt>
      <trkpt lat="50.67374" lon="5.64378">
        <ele>72.24</ele>
        <time>2012-12-03T14:32:22Z</time>
      </trkpt>
      <trkpt lat="50.67311" lon="5.64449">
        <ele>70.31</ele>
        <time>2012-12-03T14:32:28Z</time>
      </trkpt>
      <trkpt lat="50.67233" lon="5.64534">
        <ele>67.43</ele>
        <time>2012-12-03T14:32:36Z</time>
      </trkpt>
      <trkpt lat="50.67198" lon="5.64582">
        <ele>64.55</ele>
        <time>2012-12-03T14:32:40Z</time>
      </trkpt>
      <trkpt lat="50.67191" lon="5.64597">
        <ele>64.55</ele>
        <time>2012-12-03T14:32:41Z</time>
      </trkpt>
      <trkpt lat="50.67186" lon="5.64613">
        <ele>64.07</ele>
        <time>2012-12-03T14:32:42Z</time>
      </trkpt>
      <trkpt lat="50.67182" lon="5.64629">
        <ele>63.58</ele>
        <time>2012-12-03T14:32:43Z</time>
      </trkpt>
      <trkpt lat="50.67179" lon="5.64646">
        <ele>63.1</ele>
        <time>2012-12-03T14:32:44Z</time>
      </trkpt>
      <trkpt lat="50.67177" lon="5.64664">
        <ele>62.62</ele>
        <time>2012-12-03T14:32:45Z</time>
      </trkpt>
      <trkpt lat="50.67177" lon="5.64681">
        <ele>61.66</ele>
        <time>2012-12-03T14:32:46Z</time>
      </trkpt>
      <trkpt lat="50.67178" lon="5.64698">
        <ele>61.18</ele>
        <time>2012-12-03T14:32:47Z</time>
      </trkpt>
      <trkpt lat="50.67179" lon="5.64732">
        <ele>60.22</ele>
        <time>2012-12-03T14:32:49Z</time>
      </trkpt>
      <trkpt lat="50.67181" lon="5.64747">
        <ele>59.74</ele>
        <time>2012-12-03T14:32:50Z</time>
      </trkpt>
      <trkpt lat="50.67189" lon="5.64844">
        <ele>57.82</ele>
        <time>2012-12-03T14:32:56Z</time>
      </trkpt>
      <trkpt lat="50.67194" lon="5.64917">
        <ele>56.37</ele>
        <time>2012-12-03T14:33:01Z</time>
      </trkpt>
      <trkpt lat="50.67194" lon="5.6495">
        <ele>55.89</ele>
        <time>2012-12-03T14:33:05Z</time>
      </trkpt>
      <trkpt lat="50.67192" lon="5.64954">
        <ele>55.41</ele>
        <time>2012-12-03T14:33:06Z</time>
      </trkpt>
      <trkpt lat="50.67189" lon="5.64957">
        <ele>55.41</ele>
        <time>2012-12-03T14:33:07Z</time>
      </trkpt>
      <trkpt lat="50.67186" lon="5.64959">
        <ele>55.89</ele>
        <time>2012-12-03T14:33:08Z</time>
      </trkpt>
      <trkpt lat="50.67182" lon="5.6496">
        <ele>55.89</ele>
        <time>2012-12-03T14:33:09Z</time>
      </trkpt>
      <trkpt lat="50.67178" lon="5.64959">
        <ele>55.89</ele>
        <time>2012-12-03T14:33:10Z</time>
      </trkpt>
      <trkpt lat="50.67173" lon="5.64956">
        <ele>56.37</ele>
        <time>2012-12-03T14:33:11Z</time>
      </trkpt>
      <trkpt lat="50.67167" lon="5.64953">
        <ele>55.89</ele>
        <time>2012-12-03T14:33:12Z</time>
      </trkpt>
      <trkpt lat="50.67124" lon="5.64925">
        <ele>56.37</ele>
        <time>2012-12-03T14:33:18Z</time>
      </trkpt>
      <trkpt lat="50.67093" lon="5.649">
        <ele>57.34</ele>
        <time>2012-12-03T14:33:22Z</time>
      </trkpt>
      <trkpt lat="50.67086" lon="5.6489">
        <ele>57.34</ele>
        <time>2012-12-03T14:33:23Z</time>
      </trkpt>
      <trkpt lat="50.67073" lon="5.64872">
        <ele>57.82</ele>
        <time>2012-12-03T14:33:25Z</time>
      </trkpt>
      <trkpt lat="50.67067" lon="5.64861">
        <ele>57.82</ele>
        <time>2012-12-03T14:33:26Z</time>
      </trkpt>
      <trkpt lat="50.67034" lon="5.64801">
        <ele>59.74</ele>
        <time>2012-12-03T14:33:31Z</time>
      </trkpt>
      <trkpt lat="50.6699" lon="5.64753">
        <ele>61.18</ele>
        <time>2012-12-03T14:33:36Z</time>
      </trkpt>
      <trkpt lat="50.66926" lon="5.64719">
        <ele>61.18</ele>
        <time>2012-12-03T14:33:42Z</time>
      </trkpt>
      <trkpt lat="50.66804" lon="5.64666">
        <ele>62.14</ele>
        <time>2012-12-03T14:33:53Z</time>
      </trkpt>
      <trkpt lat="50.66703" lon="5.64634">
        <ele>62.14</ele>
        <time>2012-12-03T14:34:02Z</time>
      </trkpt>
      <trkpt lat="50.6661" lon="5.64617">
        <ele>61.18</ele>
        <time>2012-12-03T14:34:10Z</time>
      </trkpt>
      <trkpt lat="50.66539" lon="5.6463">
        <ele>61.18</ele>
        <time>2012-12-03T14:34:16Z</time>
      </trkpt>
      <trkpt lat="50.66446" lon="5.64671">
        <ele>61.66</ele>
        <time>2012-12-03T14:34:24Z</time>
      </trkpt>
      <trkpt lat="50.66316" lon="5.64733">
        <ele>61.66</ele>
        <time>2012-12-03T14:34:35Z</time>
      </trkpt>
      <trkpt lat="50.66192" lon="5.6478">
        <ele>61.66</ele>
        <time>2012-12-03T14:34:45Z</time>
      </trkpt>
      <trkpt lat="50.66066" lon="5.64808">
        <ele>61.18</ele>
        <time>2012-12-03T14:34:55Z</time>
      </trkpt>
      <trkpt lat="50.65966" lon="5.64808">
        <ele>61.18</ele>
        <time>2012-12-03T14:35:03Z</time>
      </trkpt>
      <trkpt lat="50.65844" lon="5.64787">
        <ele>61.18</ele>
        <time>2012-12-03T14:35:13Z</time>
      </trkpt>
      <trkpt lat="50.65751" lon="5.64761">
        <ele>60.22</ele>
        <time>2012-12-03T14:35:21Z</time>
      </trkpt>
      <trkpt lat="50.65693" lon="5.64738">
        <ele>59.74</ele>
        <time>2012-12-03T14:35:27Z</time>
      </trkpt>
      <trkpt lat="50.65659" lon="5.64723">
        <ele>59.26</ele>
        <time>2012-12-03T14:35:32Z</time>
      </trkpt>
      <trkpt lat="50.65648" lon="5.64729">
        <ele>59.26</ele>
        <time>2012-12-03T14:35:36Z</time>
      </trkpt>
      <trkpt lat="50.65634" lon="5.64744">
        <ele>59.26</ele>
        <time>2012-12-03T14:35:41Z</time>
      </trkpt>
      <trkpt lat="50.65623" lon="5.64742">
        <ele>59.74</ele>
        <time>2012-12-03T14:35:46Z</time>
      </trkpt>
      <trkpt lat="50.65622" lon="5.64743">
        <ele>59.74</ele>
        <time>2012-12-03T14:35:47Z</time>
      </trkpt>
      <trkpt lat="50.65621" lon="5.64744">
        <ele>59.74</ele>
        <time>2012-12-03T14:35:48Z</time>
      </trkpt>
      <trkpt lat="50.6562" lon="5.64747">
        <ele>60.22</ele>
        <time>2012-12-03T14:35:56Z</time>
      </trkpt>
      <trkpt lat="50.6562" lon="5.64745">
        <ele>60.22</ele>
        <time>2012-12-03T14:38:49Z</time>
      </trkpt>
      <trkpt lat="50.65624" lon="5.64754">
        <ele>60.22</ele>
        <time>2012-12-03T14:38:55Z</time>
      </trkpt>
      <trkpt lat="50.6563" lon="5.64767">
        <ele>60.7</ele>
        <time>2012-12-03T14:39:03Z</time>
      </trkpt>
      <trkpt lat="50.65637" lon="5.64777">
        <ele>61.18</ele>
        <time>2012-12-03T14:39:09Z</time>
      </trkpt>
      <trkpt lat="50.65639" lon="5.64778">
        <ele>61.18</ele>
        <time>2012-12-03T14:39:10Z</time>
      </trkpt>
      <trkpt lat="50.65648" lon="5.64783">
        <ele>60.7</ele>
        <time>2012-12-03T14:39:18Z</time>
      </trkpt>
      <trkpt lat="50.65651" lon="5.64787">
        <ele>60.7</ele>
        <time>2012-12-03T14:39:24Z</time>
      </trkpt>
      <trkpt lat="50.65651" lon="5.64787">
        <ele>61.18</ele>
        <time>2012-12-03T14:39:31Z</time>
      </trkpt>
      <trkpt lat="50.65651" lon="5.64787">
        <ele>60.22</ele>
        <time>2012-12-03T14:39:44Z</time>
      </trkpt>
      <trkpt lat="50.65651" lon="5.64787">
        <ele>60.7</ele>
        <time>2012-12-03T14:41:19Z</time>
      </trkpt>
      <trkpt lat="50.65652" lon="5.64787">
        <ele>60.7</ele>
        <time>2012-12-03T14:41:35Z</time>
      </trkpt>
      <trkpt lat="50.65652" lon="5.64786">
        <ele>60.22</ele>
        <time>2012-12-03T14:41:53Z</time>
      </trkpt>
      <trkpt lat="50.65652" lon="5.64786">
        <ele>60.7</ele>
        <time>2012-12-03T14:42:12Z</time>
      </trkpt>
      <trkpt lat="50.65651" lon="5.64784">
        <ele>60.22</ele>
        <time>2012-12-03T14:42:23Z</time>
      </trkpt>
      <trkpt lat="50.65651" lon="5.64784">
        <ele>60.22</ele>
        <time>2012-12-03T14:42:41Z</time>
      </trkpt>
      <trkpt lat="50.65651" lon="5.64783">
        <ele>60.22</ele>
        <time>2012-12-03T14:43:05Z</time>
      </trkpt>
      <trkpt lat="50.65652" lon="5.64786">
        <ele>61.18</ele>
        <time>2012-12-03T14:44:59Z</time>
      </trkpt>
      <trkpt lat="50.6565" lon="5.64791">
        <ele>61.18</ele>
        <time>2012-12-03T14:45:02Z</time>
      </trkpt>
      <trkpt lat="50.65648" lon="5.64792">
        <ele>60.7</ele>
        <time>2012-12-03T14:45:07Z</time>
      </trkpt>
      <trkpt lat="50.65643" lon="5.64789">
        <ele>60.7</ele>
        <time>2012-12-03T14:45:12Z</time>
      </trkpt>
      <trkpt lat="50.65638" lon="5.64784">
        <ele>61.18</ele>
        <time>2012-12-03T14:45:19Z</time>
      </trkpt>
      <trkpt lat="50.65635" lon="5.64782">
        <ele>60.7</ele>
        <time>2012-12-03T14:45:22Z</time>
      </trkpt>
      <trkpt lat="50.65631" lon="5.64772">
        <ele>60.7</ele>
        <time>2012-12-03T14:45:28Z</time>
      </trkpt>
      <trkpt lat="50.65628" lon="5.64763">
        <ele>60.7</ele>
        <time>2012-12-03T14:45:33Z</time>
      </trkpt>
      <trkpt lat="50.65625" lon="5.64756">
        <ele>61.66</ele>
        <time>2012-12-03T14:45:38Z</time>
      </trkpt>
      <trkpt lat="50.65622" lon="5.64744">
        <ele>62.14</ele>
        <time>2012-12-03T14:45:46Z</time>
      </trkpt>
      <trkpt lat="50.65622" lon="5.64744">
        <ele>61.18</ele>
        <time>2012-12-03T14:46:08Z</time>
      </trkpt>
      <trkpt lat="50.65631" lon="5.64755">
        <ele>60.22</ele>
        <time>2012-12-03T14:46:13Z</time>
      </trkpt>
      <trkpt lat="50.65638" lon="5.6475">
        <ele>60.22</ele>
        <time>2012-12-03T14:46:15Z</time>
      </trkpt>
      <trkpt lat="50.65641" lon="5.64744">
        <ele>59.74</ele>
        <time>2012-12-03T14:46:16Z</time>
      </trkpt>
      <trkpt lat="50.65645" lon="5.64738">
        <ele>59.74</ele>
        <time>2012-12-03T14:46:17Z</time>
      </trkpt>
      <trkpt lat="50.65649" lon="5.64734">
        <ele>59.74</ele>
        <time>2012-12-03T14:46:18Z</time>
      </trkpt>
      <trkpt lat="50.65654" lon="5.64729">
        <ele>58.78</ele>
        <time>2012-12-03T14:46:21Z</time>
      </trkpt>
      <trkpt lat="50.65654" lon="5.64728">
        <ele>59.26</ele>
        <time>2012-12-03T14:46:34Z</time>
      </trkpt>
      <trkpt lat="50.65653" lon="5.64718">
        <ele>59.74</ele>
        <time>2012-12-03T14:46:37Z</time>
      </trkpt>
      <trkpt lat="50.65649" lon="5.64713">
        <ele>59.26</ele>
        <time>2012-12-03T14:46:38Z</time>
      </trkpt>
      <trkpt lat="50.65643" lon="5.64709">
        <ele>60.22</ele>
        <time>2012-12-03T14:46:39Z</time>
      </trkpt>
      <trkpt lat="50.65636" lon="5.64706">
        <ele>60.22</ele>
        <time>2012-12-03T14:46:40Z</time>
      </trkpt>
      <trkpt lat="50.65607" lon="5.64691">
        <ele>62.14</ele>
        <time>2012-12-03T14:46:43Z</time>
      </trkpt>
      <trkpt lat="50.65573" lon="5.64669">
        <ele>63.58</ele>
        <time>2012-12-03T14:46:46Z</time>
      </trkpt>
      <trkpt lat="50.6551" lon="5.64621">
        <ele>66.95</ele>
        <time>2012-12-03T14:46:52Z</time>
      </trkpt>
      <trkpt lat="50.65486" lon="5.64601">
        <ele>66.95</ele>
        <time>2012-12-03T14:46:55Z</time>
      </trkpt>
      <trkpt lat="50.65479" lon="5.64597">
        <ele>66.95</ele>
        <time>2012-12-03T14:46:56Z</time>
      </trkpt>
      <trkpt lat="50.65473" lon="5.64596">
        <ele>66.95</ele>
        <time>2012-12-03T14:46:57Z</time>
      </trkpt>
      <trkpt lat="50.65467" lon="5.64596">
        <ele>66.47</ele>
        <time>2012-12-03T14:46:58Z</time>
      </trkpt>
      <trkpt lat="50.65461" lon="5.64597">
        <ele>66.47</ele>
        <time>2012-12-03T14:46:59Z</time>
      </trkpt>
      <trkpt lat="50.65456" lon="5.64599">
        <ele>66.95</ele>
        <time>2012-12-03T14:47:00Z</time>
      </trkpt>
      <trkpt lat="50.6544" lon="5.64601">
        <ele>66.95</ele>
        <time>2012-12-03T14:47:04Z</time>
      </trkpt>
      <trkpt lat="50.65437" lon="5.64598">
        <ele>66.47</ele>
        <time>2012-12-03T14:47:05Z</time>
      </trkpt>
      <trkpt lat="50.65434" lon="5.64595">
        <ele>66.47</ele>
        <time>2012-12-03T14:47:06Z</time>
      </trkpt>
      <trkpt lat="50.65432" lon="5.64591">
        <ele>65.99</ele>
        <time>2012-12-03T14:47:07Z</time>
      </trkpt>
      <trkpt lat="50.6543" lon="5.64589">
        <ele>65.99</ele>
        <time>2012-12-03T14:47:08Z</time>
      </trkpt>
      <trkpt lat="50.65427" lon="5.64585">
        <ele>65.99</ele>
        <time>2012-12-03T14:47:14Z</time>
      </trkpt>
      <trkpt lat="50.65427" lon="5.64585">
        <ele>62.62</ele>
        <time>2012-12-03T14:47:17Z</time>
      </trkpt>
      <trkpt lat="50.65427" lon="5.64585">
        <ele>65.99</ele>
        <time>2012-12-03T14:47:23Z</time>
      </trkpt>
      <trkpt lat="50.65427" lon="5.64585">
        <ele>61.18</ele>
        <time>2012-12-03T14:47:26Z</time>
      </trkpt>
      <trkpt lat="50.65427" lon="5.64585">
        <ele>65.99</ele>
        <time>2012-12-03T14:47:27Z</time>
      </trkpt>
      <trkpt lat="50.65428" lon="5.64585">
        <ele>60.7</ele>
        <time>2012-12-03T14:48:16Z</time>
      </trkpt>
      <trkpt lat="50.65428" lon="5.64585">
        <ele>65.03</ele>
        <time>2012-12-03T14:48:17Z</time>
      </trkpt>
      <trkpt lat="50.65428" lon="5.64585">
        <ele>68.87</ele>
        <time>2012-12-03T14:48:19Z</time>
      </trkpt>
      <trkpt lat="50.65428" lon="5.64585">
        <ele>65.51</ele>
        <time>2012-12-03T14:48:20Z</time>
      </trkpt>
      <trkpt lat="50.65428" lon="5.64585">
        <ele>65.03</ele>
        <time>2012-12-03T14:48:22Z</time>
      </trkpt>
      <trkpt lat="50.65428" lon="5.64585">
        <ele>65.51</ele>
        <time>2012-12-03T14:48:28Z</time>
      </trkpt>
    </trkseg>
  </trk>
</gpx>